3OH0 weather

Andy Barnhart Memorial Airport
New Carlisle, Ohio, United States

Public forecast

Using degrees Fahrenheit for public forecast. Weather courtesy of forecast.io.

METAR (pilot weather report)

Closest report is Wright-Patterson Air Force Base, 6.5 nm (12.0 km) SSW. Retrieved 2019/05/19 22:16 UTC (0 seconds ago):

KFFO 192216Z 16005KT 10SM FEW026 SCT065 BKN110 BKN140 20/18 A2982 RMK AO2A PRESFR SLP097

TAF (pilot weather forecast)

Closest forecast is Wright-Patterson Air Force Base, 6.5 nm (12.0 km) SSW. Retrieved 2019/05/19 19:29 UTC (3 hours ago):

TAF KFFO 191900Z 1919/2101 20015G25KT 9999 VCSH SCT055 BKN070 OVC085 510103 QNH2978INS TEMPO 1919/1921 25025G35KT 4800 -TSRA OVC020CB BECMG 1920/1921 23015G25KT 8000 -SHRA SCT055 BKN070 OVC085 510103 QNH2978INS TEMPO 1921/1923 25025G35KT 4800 -TSRA OVC020CB BECMG 2004/2005 24012G18KT 9999 NSW OVC015 QNH2980INS TX26/1919Z TN18/1921Z